sensor_id;sensor_type;location;lat;lon;timestamp;P1;durP1;ratioP1;P2;durP2;ratioP2
5801;SDS011;2927;49.366;8.530;2024-03-02T00:00:37;26.90;;;11.97;;
5801;SDS011;2927;49.366;8.530;2024-03-02T00:03:04;18.17;;;10.57;;
5801;SDS011;2927;49.366;8.530;2024-03-02T00:05:32;17.20;;;9.67;;
5801;SDS011;2927;49.366;8.530;2024-03-02T00:07:57;19.90;;;10.97;;
5801;SDS011;2927;49.366;8.530;2024-03-02T00:10:25;17.40;;;9.30;;
5801;SDS011;2927;49.366;8.530;2024-03-02T00:12:54;18.73;;;9.60;;
5801;SDS011;2927;49.366;8.530;2024-03-02T00:15:41;17.73;;;10.10;;
5801;SDS011;2927;49.366;8.530;2024-03-02T00:18:18;24.33;;;10.70;;
5801;SDS011;2927;49.366;8.530;2024-03-02T00:20:45;22.30;;;9.97;;
5801;SDS011;2927;49.366;8.530;2024-03-02T00:23:11;16.00;;;9.27;;
5801;SDS011;2927;49.366;8.530;2024-03-02T00:25:43;20.47;;;8.90;;
5801;SDS011;2927;49.366;8.530;2024-03-02T00:28:13;28.50;;;11.83;;
5801;SDS011;2927;49.366;8.530;2024-03-02T00:30:56;23.97;;;10.23;;
5801;SDS011;2927;49.366;8.530;2024-03-02T00:33:23;21.10;;;10.53;;
5801;SDS011;2927;49.366;8.530;2024-03-02T00:35:50;20.53;;;9.40;;
5801;SDS011;2927;49.366;8.530;2024-03-02T00:38:17;20.23;;;9.90;;
5801;SDS011;2927;49.366;8.530;2024-03-02T00:40:42;15.83;;;9.60;;
5801;SDS011;2927;49.366;8.530;2024-03-02T00:43:11;17.67;;;10.13;;
5801;SDS011;2927;49.366;8.530;2024-03-02T00:45:47;22.73;;;10.57;;
5801;SDS011;2927;49.366;8.530;2024-03-02T00:48:14;17.57;;;9.30;;
5801;SDS011;2927;49.366;8.530;2024-03-02T00:50:40;21.67;;;9.70;;
5801;SDS011;2927;49.366;8.530;2024-03-02T00:53:08;21.67;;;9.70;;
5801;SDS011;2927;49.366;8.530;2024-03-02T00:55:37;18.93;;;9.80;;
5801;SDS011;2927;49.366;8.530;2024-03-02T00:58:02;17.40;;;9.30;;
5801;SDS011;2927;49.366;8.530;2024-03-02T01:00:28;16.60;;;8.57;;
5801;SDS011;2927;49.366;8.530;2024-03-02T01:02:54;19.40;;;9.00;;
5801;SDS011;2927;49.366;8.530;2024-03-02T01:05:19;15.87;;;9.10;;
5801;SDS011;2927;49.366;8.530;2024-03-02T01:07:45;16.53;;;8.17;;
5801;SDS011;2927;49.366;8.530;2024-03-02T01:10:11;16.50;;;9.77;;
5801;SDS011;2927;49.366;8.530;2024-03-02T01:12:36;15.93;;;8.43;;
5801;SDS011;2927;49.366;8.530;2024-03-02T01:15:02;15.10;;;8.73;;
5801;SDS011;2927;49.366;8.530;2024-03-02T01:17:30;14.87;;;8.90;;
5801;SDS011;2927;49.366;8.530;2024-03-02T01:19:56;13.30;;;8.37;;
5801;SDS011;2927;49.366;8.530;2024-03-02T01:22:22;13.60;;;8.00;;
5801;SDS011;2927;49.366;8.530;2024-03-02T01:24:50;17.43;;;9.10;;
5801;SDS011;2927;49.366;8.530;2024-03-02T01:27:16;17.27;;;8.37;;
5801;SDS011;2927;49.366;8.530;2024-03-02T01:29:41;9.73;;;7.00;;
5801;SDS011;2927;49.366;8.530;2024-03-02T01:32:07;18.00;;;9.07;;
5801;SDS011;2927;49.366;8.530;2024-03-02T01:34:32;22.63;;;10.17;;
5801;SDS011;2927;49.366;8.530;2024-03-02T01:36:58;17.43;;;8.93;;
5801;SDS011;2927;49.366;8.530;2024-03-02T01:39:23;13.33;;;7.73;;
5801;SDS011;2927;49.366;8.530;2024-03-02T01:41:49;14.33;;;8.37;;
5801;SDS011;2927;49.366;8.530;2024-03-02T01:44:14;15.10;;;8.53;;
5801;SDS011;2927;49.366;8.530;2024-03-02T01:46:40;16.27;;;8.40;;
5801;SDS011;2927;49.366;8.530;2024-03-02T01:49:06;13.03;;;8.43;;
5801;SDS011;2927;49.366;8.530;2024-03-02T01:51:31;15.90;;;8.27;;
5801;SDS011;2927;49.366;8.530;2024-03-02T01:53:57;15.10;;;8.37;;
5801;SDS011;2927;49.366;8.530;2024-03-02T01:56:22;16.23;;;10.13;;
5801;SDS011;2927;49.366;8.530;2024-03-02T01:58:49;15.73;;;8.93;;
5801;SDS011;2927;49.366;8.530;2024-03-02T02:01:14;15.63;;;9.70;;
5801;SDS011;2927;49.366;8.530;2024-03-02T02:03:41;19.37;;;10.20;;
5801;SDS011;2927;49.366;8.530;2024-03-02T02:06:08;21.20;;;10.40;;
5801;SDS011;2927;49.366;8.530;2024-03-02T02:08:34;19.83;;;10.43;;
5801;SDS011;2927;49.366;8.530;2024-03-02T02:11:02;19.07;;;10.77;;
5801;SDS011;2927;49.366;8.530;2024-03-02T02:13:27;19.73;;;10.80;;
5801;SDS011;2927;49.366;8.530;2024-03-02T02:15:53;18.00;;;10.73;;
5801;SDS011;2927;49.366;8.530;2024-03-02T02:18:18;22.00;;;10.37;;
5801;SDS011;2927;49.366;8.530;2024-03-02T02:20:44;19.37;;;10.47;;
5801;SDS011;2927;49.366;8.530;2024-03-02T02:23:09;19.40;;;10.27;;
5801;SDS011;2927;49.366;8.530;2024-03-02T02:25:35;20.30;;;10.60;;
5801;SDS011;2927;49.366;8.530;2024-03-02T02:28:00;19.00;;;9.03;;
5801;SDS011;2927;49.366;8.530;2024-03-02T02:30:28;23.47;;;10.70;;
5801;SDS011;2927;49.366;8.530;2024-03-02T02:32:55;24.43;;;10.60;;
5801;SDS011;2927;49.366;8.530;2024-03-02T02:35:20;15.70;;;9.47;;
5801;SDS011;2927;49.366;8.530;2024-03-02T02:37:47;16.37;;;9.83;;
5801;SDS011;2927;49.366;8.530;2024-03-02T02:40:13;18.23;;;9.37;;
5801;SDS011;2927;49.366;8.530;2024-03-02T02:42:39;19.00;;;8.57;;
5801;SDS011;2927;49.366;8.530;2024-03-02T02:45:08;18.37;;;9.17;;
5801;SDS011;2927;49.366;8.530;2024-03-02T02:47:34;13.57;;;8.17;;
5801;SDS011;2927;49.366;8.530;2024-03-02T02:50:03;13.93;;;8.30;;
5801;SDS011;2927;49.366;8.530;2024-03-02T02:52:32;15.00;;;8.70;;
5801;SDS011;2927;49.366;8.530;2024-03-02T02:55:04;13.80;;;8.17;;
5801;SDS011;2927;49.366;8.530;2024-03-02T02:57:31;15.70;;;8.90;;
5801;SDS011;2927;49.366;8.530;2024-03-02T03:00:00;21.80;;;9.03;;
5801;SDS011;2927;49.366;8.530;2024-03-02T03:02:30;20.03;;;8.53;;
5801;SDS011;2927;49.366;8.530;2024-03-02T03:04:55;16.60;;;8.33;;
5801;SDS011;2927;49.366;8.530;2024-03-02T03:07:22;15.13;;;7.90;;
5801;SDS011;2927;49.366;8.530;2024-03-02T03:09:48;14.33;;;7.90;;
5801;SDS011;2927;49.366;8.530;2024-03-02T03:12:13;17.47;;;8.10;;
5801;SDS011;2927;49.366;8.530;2024-03-02T03:14:40;14.00;;;8.13;;
5801;SDS011;2927;49.366;8.530;2024-03-02T03:17:06;17.17;;;8.50;;
5801;SDS011;2927;49.366;8.530;2024-03-02T03:19:33;13.63;;;8.03;;
5801;SDS011;2927;49.366;8.530;2024-03-02T03:21:58;21.23;;;8.93;;
5801;SDS011;2927;49.366;8.530;2024-03-02T03:24:24;18.33;;;8.33;;
5801;SDS011;2927;49.366;8.530;2024-03-02T03:26:49;16.57;;;8.87;;
5801;SDS011;2927;49.366;8.530;2024-03-02T03:29:15;16.07;;;9.00;;
5801;SDS011;2927;49.366;8.530;2024-03-02T03:31:40;15.10;;;8.97;;
5801;SDS011;2927;49.366;8.530;2024-03-02T03:34:06;12.90;;;8.37;;
5801;SDS011;2927;49.366;8.530;2024-03-02T03:36:31;14.80;;;8.23;;
5801;SDS011;2927;49.366;8.530;2024-03-02T03:38:57;16.00;;;9.10;;
5801;SDS011;2927;49.366;8.530;2024-03-02T03:41:22;17.23;;;9.60;;
5801;SDS011;2927;49.366;8.530;2024-03-02T03:43:49;22.83;;;9.33;;
5801;SDS011;2927;49.366;8.530;2024-03-02T03:46:15;18.83;;;9.87;;
5801;SDS011;2927;49.366;8.530;2024-03-02T03:48:40;15.90;;;8.60;;
5801;SDS011;2927;49.366;8.530;2024-03-02T03:51:07;13.73;;;8.77;;
5801;SDS011;2927;49.366;8.530;2024-03-02T03:53:32;16.90;;;9.80;;
5801;SDS011;2927;49.366;8.530;2024-03-02T03:55:58;17.50;;;9.50;;
5801;SDS011;2927;49.366;8.530;2024-03-02T03:58:23;16.40;;;10.20;;
5801;SDS011;2927;49.366;8.530;2024-03-02T04:00:49;22.83;;;9.73;;
5801;SDS011;2927;49.366;8.530;2024-03-02T04:03:14;27.30;;;11.30;;
5801;SDS011;2927;49.366;8.530;2024-03-02T04:05:40;28.03;;;13.03;;
5801;SDS011;2927;49.366;8.530;2024-03-02T04:08:05;37.73;;;16.37;;
5801;SDS011;2927;49.366;8.530;2024-03-02T04:10:31;25.60;;;13.00;;
5801;SDS011;2927;49.366;8.530;2024-03-02T04:12:56;32.17;;;15.23;;
5801;SDS011;2927;49.366;8.530;2024-03-02T04:15:22;28.73;;;14.37;;
5801;SDS011;2927;49.366;8.530;2024-03-02T04:17:48;30.00;;;13.53;;
5801;SDS011;2927;49.366;8.530;2024-03-02T04:20:14;21.67;;;11.03;;
5801;SDS011;2927;49.366;8.530;2024-03-02T04:22:39;24.33;;;11.93;;
5801;SDS011;2927;49.366;8.530;2024-03-02T04:25:05;18.60;;;11.03;;
5801;SDS011;2927;49.366;8.530;2024-03-02T04:27:32;18.43;;;10.90;;
5801;SDS011;2927;49.366;8.530;2024-03-02T04:29:58;21.93;;;11.60;;
5801;SDS011;2927;49.366;8.530;2024-03-02T04:32:25;25.10;;;12.60;;
5801;SDS011;2927;49.366;8.530;2024-03-02T04:34:51;21.97;;;11.73;;
5801;SDS011;2927;49.366;8.530;2024-03-02T04:37:16;19.30;;;10.80;;
5801;SDS011;2927;49.366;8.530;2024-03-02T04:39:42;17.03;;;10.50;;
5801;SDS011;2927;49.366;8.530;2024-03-02T04:42:08;18.03;;;9.27;;
5801;SDS011;2927;49.366;8.530;2024-03-02T04:44:33;19.70;;;9.90;;
5801;SDS011;2927;49.366;8.530;2024-03-02T04:46:59;19.57;;;11.40;;
5801;SDS011;2927;49.366;8.530;2024-03-02T04:49:24;20.90;;;12.00;;
5801;SDS011;2927;49.366;8.530;2024-03-02T04:51:50;20.17;;;11.23;;
5801;SDS011;2927;49.366;8.530;2024-03-02T04:54:16;26.23;;;11.37;;
5801;SDS011;2927;49.366;8.530;2024-03-02T04:56:41;18.27;;;10.10;;
5801;SDS011;2927;49.366;8.530;2024-03-02T04:59:14;13.87;;;8.73;;
5801;SDS011;2927;49.366;8.530;2024-03-02T05:01:40;18.10;;;10.40;;
5801;SDS011;2927;49.366;8.530;2024-03-02T05:04:05;17.63;;;9.87;;
5801;SDS011;2927;49.366;8.530;2024-03-02T05:06:31;18.73;;;10.53;;
5801;SDS011;2927;49.366;8.530;2024-03-02T05:08:56;19.60;;;10.83;;
5801;SDS011;2927;49.366;8.530;2024-03-02T05:11:22;17.30;;;9.33;;
5801;SDS011;2927;49.366;8.530;2024-03-02T05:14:05;14.23;;;8.87;;
5801;SDS011;2927;49.366;8.530;2024-03-02T05:16:35;15.07;;;8.70;;
5801;SDS011;2927;49.366;8.530;2024-03-02T05:19:01;23.40;;;10.63;;
5801;SDS011;2927;49.366;8.530;2024-03-02T05:21:27;24.37;;;12.30;;
5801;SDS011;2927;49.366;8.530;2024-03-02T05:23:53;18.23;;;9.83;;
5801;SDS011;2927;49.366;8.530;2024-03-02T05:26:20;19.43;;;10.83;;
5801;SDS011;2927;49.366;8.530;2024-03-02T05:28:45;27.57;;;12.70;;
5801;SDS011;2927;49.366;8.530;2024-03-02T05:31:11;22.80;;;10.90;;
5801;SDS011;2927;49.366;8.530;2024-03-02T05:33:39;23.93;;;12.80;;
5801;SDS011;2927;49.366;8.530;2024-03-02T05:36:05;18.63;;;10.87;;
5801;SDS011;2927;49.366;8.530;2024-03-02T05:38:31;16.30;;;9.67;;
5801;SDS011;2927;49.366;8.530;2024-03-02T05:40:57;21.17;;;10.90;;
5801;SDS011;2927;49.366;8.530;2024-03-02T05:43:22;22.60;;;11.13;;
5801;SDS011;2927;49.366;8.530;2024-03-02T05:45:48;25.43;;;13.10;;
5801;SDS011;2927;49.366;8.530;2024-03-02T05:48:14;25.07;;;12.80;;
5801;SDS011;2927;49.366;8.530;2024-03-02T05:50:39;23.23;;;12.07;;
5801;SDS011;2927;49.366;8.530;2024-03-02T05:53:05;23.47;;;10.90;;
5801;SDS011;2927;49.366;8.530;2024-03-02T05:55:30;25.10;;;11.77;;
5801;SDS011;2927;49.366;8.530;2024-03-02T05:57:56;22.07;;;11.73;;
5801;SDS011;2927;49.366;8.530;2024-03-02T06:00:44;26.40;;;13.03;;
5801;SDS011;2927;49.366;8.530;2024-03-02T06:03:10;21.33;;;11.00;;
5801;SDS011;2927;49.366;8.530;2024-03-02T06:05:35;22.57;;;10.83;;
5801;SDS011;2927;49.366;8.530;2024-03-02T06:08:01;28.90;;;14.50;;
5801;SDS011;2927;49.366;8.530;2024-03-02T06:10:26;22.40;;;12.10;;
5801;SDS011;2927;49.366;8.530;2024-03-02T06:12:52;24.00;;;12.47;;
5801;SDS011;2927;49.366;8.530;2024-03-02T06:15:17;25.63;;;13.23;;
5801;SDS011;2927;49.366;8.530;2024-03-02T06:17:43;27.80;;;14.57;;
5801;SDS011;2927;49.366;8.530;2024-03-02T06:20:09;30.90;;;12.90;;
5801;SDS011;2927;49.366;8.530;2024-03-02T06:22:35;27.57;;;13.13;;
5801;SDS011;2927;49.366;8.530;2024-03-02T06:25:03;24.37;;;12.20;;
5801;SDS011;2927;49.366;8.530;2024-03-02T06:27:28;22.00;;;12.83;;
5801;SDS011;2927;49.366;8.530;2024-03-02T06:29:54;22.57;;;12.97;;
5801;SDS011;2927;49.366;8.530;2024-03-02T06:32:19;28.60;;;13.17;;
5801;SDS011;2927;49.366;8.530;2024-03-02T06:34:45;24.10;;;12.33;;
5801;SDS011;2927;49.366;8.530;2024-03-02T06:37:11;25.47;;;11.97;;
5801;SDS011;2927;49.366;8.530;2024-03-02T06:39:36;23.17;;;12.30;;
5801;SDS011;2927;49.366;8.530;2024-03-02T06:42:02;21.40;;;11.37;;
5801;SDS011;2927;49.366;8.530;2024-03-02T06:44:28;26.50;;;13.90;;
5801;SDS011;2927;49.366;8.530;2024-03-02T06:46:53;23.60;;;12.70;;
5801;SDS011;2927;49.366;8.530;2024-03-02T06:49:19;26.40;;;13.00;;
5801;SDS011;2927;49.366;8.530;2024-03-02T06:51:44;23.50;;;12.93;;
5801;SDS011;2927;49.366;8.530;2024-03-02T06:54:10;25.57;;;11.80;;
5801;SDS011;2927;49.366;8.530;2024-03-02T06:56:35;25.30;;;14.00;;
5801;SDS011;2927;49.366;8.530;2024-03-02T06:59:01;31.03;;;15.40;;
5801;SDS011;2927;49.366;8.530;2024-03-02T07:01:26;24.83;;;13.33;;
5801;SDS011;2927;49.366;8.530;2024-03-02T07:03:53;27.27;;;14.20;;
5801;SDS011;2927;49.366;8.530;2024-03-02T07:06:18;25.00;;;13.60;;
5801;SDS011;2927;49.366;8.530;2024-03-02T07:08:44;28.53;;;14.30;;
5801;SDS011;2927;49.366;8.530;2024-03-02T07:11:09;31.70;;;15.13;;
5801;SDS011;2927;49.366;8.530;2024-03-02T07:13:35;26.60;;;14.80;;
5801;SDS011;2927;49.366;8.530;2024-03-02T07:16:00;31.07;;;16.70;;
5801;SDS011;2927;49.366;8.530;2024-03-02T07:18:29;33.40;;;17.10;;
5801;SDS011;2927;49.366;8.530;2024-03-02T07:20:58;34.60;;;17.40;;
5801;SDS011;2927;49.366;8.530;2024-03-02T07:23:26;27.60;;;14.20;;
5801;SDS011;2927;49.366;8.530;2024-03-02T07:25:52;30.10;;;14.30;;
5801;SDS011;2927;49.366;8.530;2024-03-02T07:28:21;28.43;;;14.50;;
5801;SDS011;2927;49.366;8.530;2024-03-02T07:30:57;32.50;;;15.70;;
5801;SDS011;2927;49.366;8.530;2024-03-02T07:33:23;38.30;;;19.17;;
5801;SDS011;2927;49.366;8.530;2024-03-02T07:35:49;40.60;;;20.23;;
5801;SDS011;2927;49.366;8.530;2024-03-02T07:38:14;26.23;;;15.50;;
5801;SDS011;2927;49.366;8.530;2024-03-02T07:40:40;16.20;;;10.30;;
5801;SDS011;2927;49.366;8.530;2024-03-02T07:43:06;17.57;;;10.07;;
5801;SDS011;2927;49.366;8.530;2024-03-02T07:45:31;12.87;;;9.30;;
5801;SDS011;2927;49.366;8.530;2024-03-02T07:47:57;13.30;;;8.53;;
5801;SDS011;2927;49.366;8.530;2024-03-02T07:50:23;17.13;;;10.50;;
5801;SDS011;2927;49.366;8.530;2024-03-02T07:52:48;14.80;;;9.40;;
5801;SDS011;2927;49.366;8.530;2024-03-02T07:55:14;14.60;;;10.03;;
5801;SDS011;2927;49.366;8.530;2024-03-02T07:57:40;15.03;;;10.30;;
5801;SDS011;2927;49.366;8.530;2024-03-02T08:00:06;15.00;;;9.97;;
5801;SDS011;2927;49.366;8.530;2024-03-02T08:02:31;14.43;;;9.97;;
5801;SDS011;2927;49.366;8.530;2024-03-02T08:04:57;14.07;;;9.60;;
5801;SDS011;2927;49.366;8.530;2024-03-02T08:07:22;13.23;;;9.47;;
5801;SDS011;2927;49.366;8.530;2024-03-02T08:09:48;11.47;;;8.50;;
5801;SDS011;2927;49.366;8.530;2024-03-02T08:12:14;10.50;;;7.87;;
5801;SDS011;2927;49.366;8.530;2024-03-02T08:14:39;8.43;;;6.80;;
5801;SDS011;2927;49.366;8.530;2024-03-02T08:17:05;10.37;;;8.03;;
5801;SDS011;2927;49.366;8.530;2024-03-02T08:19:35;9.73;;;7.60;;
5801;SDS011;2927;49.366;8.530;2024-03-02T08:22:01;9.13;;;7.20;;
5801;SDS011;2927;49.366;8.530;2024-03-02T08:24:27;8.57;;;7.03;;
5801;SDS011;2927;49.366;8.530;2024-03-02T08:26:52;12.80;;;7.90;;
5801;SDS011;2927;49.366;8.530;2024-03-02T08:29:18;11.20;;;7.20;;
5801;SDS011;2927;49.366;8.530;2024-03-02T08:31:43;10.50;;;6.97;;
5801;SDS011;2927;49.366;8.530;2024-03-02T08:34:09;13.97;;;7.80;;
5801;SDS011;2927;49.366;8.530;2024-03-02T08:36:34;10.53;;;6.07;;
5801;SDS011;2927;49.366;8.530;2024-03-02T08:39:01;10.80;;;6.57;;
5801;SDS011;2927;49.366;8.530;2024-03-02T08:41:27;7.83;;;5.93;;
5801;SDS011;2927;49.366;8.530;2024-03-02T08:43:52;11.30;;;6.33;;
5801;SDS011;2927;49.366;8.530;2024-03-02T08:46:18;10.07;;;5.80;;
5801;SDS011;2927;49.366;8.530;2024-03-02T08:48:44;9.77;;;6.33;;
5801;SDS011;2927;49.366;8.530;2024-03-02T08:51:09;9.20;;;5.40;;
5801;SDS011;2927;49.366;8.530;2024-03-02T08:53:35;10.40;;;5.87;;
5801;SDS011;2927;49.366;8.530;2024-03-02T08:56:01;11.07;;;6.90;;
5801;SDS011;2927;49.366;8.530;2024-03-02T08:58:27;7.13;;;5.00;;
5801;SDS011;2927;49.366;8.530;2024-03-02T09:00:52;11.53;;;5.57;;
5801;SDS011;2927;49.366;8.530;2024-03-02T09:03:18;8.00;;;5.50;;
5801;SDS011;2927;49.366;8.530;2024-03-02T09:05:43;5.77;;;4.63;;
5801;SDS011;2927;49.366;8.530;2024-03-02T09:08:09;5.17;;;4.20;;
5801;SDS011;2927;49.366;8.530;2024-03-02T09:10:35;7.30;;;4.70;;
5801;SDS011;2927;49.366;8.530;2024-03-02T09:13:00;5.90;;;4.73;;
5801;SDS011;2927;49.366;8.530;2024-03-02T09:15:26;6.30;;;4.37;;
5801;SDS011;2927;49.366;8.530;2024-03-02T09:17:52;4.67;;;4.17;;
5801;SDS011;2927;49.366;8.530;2024-03-02T09:20:17;6.30;;;4.87;;
5801;SDS011;2927;49.366;8.530;2024-03-02T09:22:43;7.57;;;5.13;;
5801;SDS011;2927;49.366;8.530;2024-03-02T09:25:08;7.13;;;4.63;;
5801;SDS011;2927;49.366;8.530;2024-03-02T09:27:37;6.70;;;5.20;;
5801;SDS011;2927;49.366;8.530;2024-03-02T09:30:04;7.07;;;4.97;;
5801;SDS011;2927;49.366;8.530;2024-03-02T09:32:32;4.97;;;4.47;;
5801;SDS011;2927;49.366;8.530;2024-03-02T09:34:58;5.70;;;4.70;;
5801;SDS011;2927;49.366;8.530;2024-03-02T09:37:24;4.27;;;3.87;;
5801;SDS011;2927;49.366;8.530;2024-03-02T09:39:49;5.13;;;4.20;;
5801;SDS011;2927;49.366;8.530;2024-03-02T09:42:15;4.63;;;3.90;;
5801;SDS011;2927;49.366;8.530;2024-03-02T09:44:41;4.27;;;3.87;;
5801;SDS011;2927;49.366;8.530;2024-03-02T09:47:07;4.87;;;4.47;;
5801;SDS011;2927;49.366;8.530;2024-03-02T09:49:33;8.03;;;4.50;;
5801;SDS011;2927;49.366;8.530;2024-03-02T09:52:00;5.83;;;4.30;;
5801;SDS011;2927;49.366;8.530;2024-03-02T09:54:26;6.50;;;4.73;;
5801;SDS011;2927;49.366;8.530;2024-03-02T09:56:51;4.13;;;3.60;;
5801;SDS011;2927;49.366;8.530;2024-03-02T09:59:17;7.70;;;3.53;;
5801;SDS011;2927;49.366;8.530;2024-03-02T10:02:03;7.23;;;6.47;;
5801;SDS011;2927;49.366;8.530;2024-03-02T10:04:32;6.30;;;3.67;;
5801;SDS011;2927;49.366;8.530;2024-03-02T10:09:36;4.10;;;3.10;;
5801;SDS011;2927;49.366;8.530;2024-03-02T10:12:06;5.53;;;3.30;;
5801;SDS011;2927;49.366;8.530;2024-03-02T10:14:33;4.20;;;3.20;;
5801;SDS011;2927;49.366;8.530;2024-03-02T10:17:02;6.00;;;3.57;;
5801;SDS011;2927;49.366;8.530;2024-03-02T10:19:32;4.93;;;3.50;;
5801;SDS011;2927;49.366;8.530;2024-03-02T10:22:00;4.53;;;3.30;;
5801;SDS011;2927;49.366;8.530;2024-03-02T10:24:27;5.50;;;3.30;;
5801;SDS011;2927;49.366;8.530;2024-03-02T10:26:59;4.50;;;3.10;;
5801;SDS011;2927;49.366;8.530;2024-03-02T10:29:24;6.07;;;3.70;;
5801;SDS011;2927;49.366;8.530;2024-03-02T10:31:53;5.03;;;3.60;;
5801;SDS011;2927;49.366;8.530;2024-03-02T10:34:19;5.53;;;3.70;;
5801;SDS011;2927;49.366;8.530;2024-03-02T10:36:46;7.73;;;3.47;;
5801;SDS011;2927;49.366;8.530;2024-03-02T10:39:13;5.10;;;3.10;;
5801;SDS011;2927;49.366;8.530;2024-03-02T10:41:39;3.77;;;3.13;;
5801;SDS011;2927;49.366;8.530;2024-03-02T10:44:06;4.40;;;3.00;;
5801;SDS011;2927;49.366;8.530;2024-03-02T10:46:33;5.47;;;3.50;;
5801;SDS011;2927;49.366;8.530;2024-03-02T10:49:02;5.30;;;3.87;;
5801;SDS011;2927;49.366;8.530;2024-03-02T10:51:30;4.97;;;2.67;;
5801;SDS011;2927;49.366;8.530;2024-03-02T10:53:59;4.90;;;3.20;;
5801;SDS011;2927;49.366;8.530;2024-03-02T10:56:29;5.77;;;3.80;;
5801;SDS011;2927;49.366;8.530;2024-03-02T11:01:34;6.00;;;3.40;;
5801;SDS011;2927;49.366;8.530;2024-03-02T11:04:02;6.63;;;4.00;;
5801;SDS011;2927;49.366;8.530;2024-03-02T11:06:33;2.93;;;2.73;;
5801;SDS011;2927;49.366;8.530;2024-03-02T11:09:03;5.60;;;3.03;;
5801;SDS011;2927;49.366;8.530;2024-03-02T11:11:34;4.60;;;3.40;;
5801;SDS011;2927;49.366;8.530;2024-03-02T11:14:02;5.33;;;3.53;;
5801;SDS011;2927;49.366;8.530;2024-03-02T11:16:37;4.63;;;2.97;;
5801;SDS011;2927;49.366;8.530;2024-03-02T11:19:05;4.07;;;2.63;;
5801;SDS011;2927;49.366;8.530;2024-03-02T11:21:39;4.77;;;2.93;;
5801;SDS011;2927;49.366;8.530;2024-03-02T11:26:49;2.57;;;2.37;;
5801;SDS011;2927;49.366;8.530;2024-03-02T11:32:02;2.20;;;2.10;;
5801;SDS011;2927;49.366;8.530;2024-03-02T11:34:32;3.03;;;2.40;;
5801;SDS011;2927;49.366;8.530;2024-03-02T11:37:00;6.10;;;2.47;;
5801;SDS011;2927;49.366;8.530;2024-03-02T11:39:27;3.03;;;1.97;;
5801;SDS011;2927;49.366;8.530;2024-03-02T11:41:53;3.03;;;2.37;;
5801;SDS011;2927;49.366;8.530;2024-03-02T11:44:19;2.47;;;2.23;;
5801;SDS011;2927;49.366;8.530;2024-03-02T11:46:45;2.50;;;2.07;;
5801;SDS011;2927;49.366;8.530;2024-03-02T11:49:26;2.73;;;1.80;;
5801;SDS011;2927;49.366;8.530;2024-03-02T11:52:02;1.80;;;1.70;;
5801;SDS011;2927;49.366;8.530;2024-03-02T11:54:31;1.90;;;1.70;;
5801;SDS011;2927;49.366;8.530;2024-03-02T11:57:01;3.53;;;1.60;;
5801;SDS011;2927;49.366;8.530;2024-03-02T11:59:28;2.73;;;2.13;;
5801;SDS011;2927;49.366;8.530;2024-03-02T12:01:57;2.73;;;1.80;;
5801;SDS011;2927;49.366;8.530;2024-03-02T12:04:24;1.90;;;1.67;;
5801;SDS011;2927;49.366;8.530;2024-03-02T12:07:00;2.67;;;1.80;;
5801;SDS011;2927;49.366;8.530;2024-03-02T12:09:29;3.00;;;2.07;;
5801;SDS011;2927;49.366;8.530;2024-03-02T12:12:28;3.20;;;2.23;;
5801;SDS011;2927;49.366;8.530;2024-03-02T12:14:51;1.73;;;1.63;;
5801;SDS011;2927;49.366;8.530;2024-03-02T12:17:18;3.67;;;1.93;;
5801;SDS011;2927;49.366;8.530;2024-03-02T12:19:44;1.67;;;1.40;;
5801;SDS011;2927;49.366;8.530;2024-03-02T12:22:11;1.13;;;1.03;;
5801;SDS011;2927;49.366;8.530;2024-03-02T12:24:36;1.47;;;1.20;;
5801;SDS011;2927;49.366;8.530;2024-03-02T12:27:02;2.07;;;1.80;;
5801;SDS011;2927;49.366;8.530;2024-03-02T12:29:29;1.37;;;1.27;;
5801;SDS011;2927;49.366;8.530;2024-03-02T12:31:55;1.50;;;1.40;;
5801;SDS011;2927;49.366;8.530;2024-03-02T12:34:21;3.13;;;1.00;;
5801;SDS011;2927;49.366;8.530;2024-03-02T12:36:47;1.87;;;1.67;;
5801;SDS011;2927;49.366;8.530;2024-03-02T12:39:17;2.90;;;2.27;;
5801;SDS011;2927;49.366;8.530;2024-03-02T12:41:43;3.50;;;2.00;;
5801;SDS011;2927;49.366;8.530;2024-03-02T12:44:09;4.27;;;2.17;;
5801;SDS011;2927;49.366;8.530;2024-03-02T12:46:35;5.83;;;1.97;;
5801;SDS011;2927;49.366;8.530;2024-03-02T12:49:08;2.60;;;2.40;;
5801;SDS011;2927;49.366;8.530;2024-03-02T12:51:35;1.83;;;1.73;;
5801;SDS011;2927;49.366;8.530;2024-03-02T12:54:02;2.93;;;2.20;;
5801;SDS011;2927;49.366;8.530;2024-03-02T12:56:28;5.03;;;2.30;;
5801;SDS011;2927;49.366;8.530;2024-03-02T12:58:55;3.40;;;2.47;;
5801;SDS011;2927;49.366;8.530;2024-03-02T13:01:20;3.20;;;2.27;;
5801;SDS011;2927;49.366;8.530;2024-03-02T13:03:48;2.70;;;2.33;;
5801;SDS011;2927;49.366;8.530;2024-03-02T13:06:16;4.17;;;2.50;;
5801;SDS011;2927;49.366;8.530;2024-03-02T13:08:42;2.87;;;2.53;;
5801;SDS011;2927;49.366;8.530;2024-03-02T13:11:07;2.10;;;1.87;;
5801;SDS011;2927;49.366;8.530;2024-03-02T13:13:33;2.20;;;1.80;;
5801;SDS011;2927;49.366;8.530;2024-03-02T13:15:59;4.20;;;1.40;;
5801;SDS011;2927;49.366;8.530;2024-03-02T13:18:25;4.10;;;2.03;;
5801;SDS011;2927;49.366;8.530;2024-03-02T13:20:51;2.30;;;2.20;;
5801;SDS011;2927;49.366;8.530;2024-03-02T13:23:17;4.60;;;2.37;;
5801;SDS011;2927;49.366;8.530;2024-03-02T13:25:42;3.83;;;2.50;;
5801;SDS011;2927;49.366;8.530;2024-03-02T13:28:08;2.13;;;1.90;;
5801;SDS011;2927;49.366;8.530;2024-03-02T13:30:34;2.67;;;2.00;;
5801;SDS011;2927;49.366;8.530;2024-03-02T13:33:01;2.77;;;1.73;;
5801;SDS011;2927;49.366;8.530;2024-03-02T13:35:27;2.87;;;2.50;;
5801;SDS011;2927;49.366;8.530;2024-03-02T13:37:52;4.03;;;2.17;;
5801;SDS011;2927;49.366;8.530;2024-03-02T13:40:18;3.20;;;2.27;;
5801;SDS011;2927;49.366;8.530;2024-03-02T13:42:45;2.43;;;2.23;;
5801;SDS011;2927;49.366;8.530;2024-03-02T13:45:12;3.13;;;1.57;;
5801;SDS011;2927;49.366;8.530;2024-03-02T13:47:40;3.10;;;2.50;;
5801;SDS011;2927;49.366;8.530;2024-03-02T13:50:07;3.00;;;2.30;;
5801;SDS011;2927;49.366;8.530;2024-03-02T13:52:32;2.60;;;1.90;;
5801;SDS011;2927;49.366;8.530;2024-03-02T13:54:58;3.37;;;2.67;;
5801;SDS011;2927;49.366;8.530;2024-03-02T13:57:23;2.87;;;2.43;;
5801;SDS011;2927;49.366;8.530;2024-03-02T13:59:49;3.67;;;2.47;;
5801;SDS011;2927;49.366;8.530;2024-03-02T14:02:17;3.23;;;2.30;;
5801;SDS011;2927;49.366;8.530;2024-03-02T14:04:42;4.00;;;3.70;;
5801;SDS011;2927;49.366;8.530;2024-03-02T14:07:08;2.53;;;2.33;;
5801;SDS011;2927;49.366;8.530;2024-03-02T14:09:34;2.60;;;2.40;;
5801;SDS011;2927;49.366;8.530;2024-03-02T14:12:00;3.57;;;2.67;;
5801;SDS011;2927;49.366;8.530;2024-03-02T14:14:26;2.87;;;2.57;;
5801;SDS011;2927;49.366;8.530;2024-03-02T14:16:52;2.57;;;2.00;;
5801;SDS011;2927;49.366;8.530;2024-03-02T14:19:18;2.93;;;1.90;;
5801;SDS011;2927;49.366;8.530;2024-03-02T14:21:47;1.77;;;1.67;;
5801;SDS011;2927;49.366;8.530;2024-03-02T14:24:13;4.13;;;2.33;;
5801;SDS011;2927;49.366;8.530;2024-03-02T14:26:39;2.10;;;1.90;;
5801;SDS011;2927;49.366;8.530;2024-03-02T14:29:04;1.20;;;1.10;;
5801;SDS011;2927;49.366;8.530;2024-03-02T14:31:30;1.53;;;1.50;;
5801;SDS011;2927;49.366;8.530;2024-03-02T14:33:56;1.87;;;1.40;;
5801;SDS011;2927;49.366;8.530;2024-03-02T14:36:22;1.83;;;1.57;;
5801;SDS011;2927;49.366;8.530;2024-03-02T14:38:48;2.57;;;1.40;;
5801;SDS011;2927;49.366;8.530;2024-03-02T14:41:14;1.37;;;1.20;;
5801;SDS011;2927;49.366;8.530;2024-03-02T14:43:40;1.40;;;1.30;;
5801;SDS011;2927;49.366;8.530;2024-03-02T14:46:05;3.20;;;1.83;;
5801;SDS011;2927;49.366;8.530;2024-03-02T14:48:33;1.30;;;1.20;;
5801;SDS011;2927;49.366;8.530;2024-03-02T14:51:00;1.83;;;1.03;;
5801;SDS011;2927;49.366;8.530;2024-03-02T14:53:25;1.77;;;1.07;;
5801;SDS011;2927;49.366;8.530;2024-03-02T14:55:51;2.70;;;1.57;;
5801;SDS011;2927;49.366;8.530;2024-03-02T14:58:17;1.33;;;1.23;;
5801;SDS011;2927;49.366;8.530;2024-03-02T15:00:42;1.83;;;0.90;;
5801;SDS011;2927;49.366;8.530;2024-03-02T15:03:08;1.80;;;1.60;;
5801;SDS011;2927;49.366;8.530;2024-03-02T15:05:34;2.20;;;1.33;;
5801;SDS011;2927;49.366;8.530;2024-03-02T15:08:00;2.53;;;1.53;;
5801;SDS011;2927;49.366;8.530;2024-03-02T15:10:29;3.37;;;1.17;;